Akron, PA

5:54 PM EDT on April 21, 2015 (GMT -0400)
Weather on the Hill / or not | | Change Station
CLOSE
Current Station
Personal Weather Station
Location: Ephrata, PA
Elevation: 499 ft
Nearby Weather Stations

Elev 499 ft 40.17 °N, 76.18 °W | Updated 6 seconds ago

Clear
Clear
61.0 °F
Feels Like 61.0 °F
N
6.9
Wind Variable Wind from ENE
Gusts 15.2 mph

Today
High -- | Low -- °F
--% Chance of Precip.
Yesterday
High -- | Low -- °F
Precip. -- in
6:18 AM 7:49 PM
Waxing Crescent, 13% visible
Pressure 29.72 in
Visibility 10.0 miles
Clouds Mostly Cloudy 9000 ft
Dew Point 20 °F
Humidity 20%
Rainfall 0.78 in
Snow Depth Not available.
UV 2 out of 12
Pollen 10.40 out of 12
Air Quality Not available.
Flu Activity Sporadic
METAR KLNS 212053Z 28012G24KT 10SM BKN090 15/M01 A2972 RMK AO2 SLP062 T01501006 55005

More Conditions Fewer Conditions

Pressure 29.72 in
Visibility 10.0 miles
Clouds Mostly Cloudy 9000 ft
Dew Point 20 °F
Humidity 20%
Rainfall 0.78 in
Snow Depth Not available.
UV 2 out of 12
Pollen 10.40 out of 12
Air Quality Not available.
Flu Activity Sporadic
METAR KLNS 212053Z 28012G24KT 10SM BKN090 15/M01 A2972 RMK AO2 SLP062 T01501006 55005

More Conditions Fewer Conditions

10-Day Weather Forecast

Almanac

Astronomy

Apr. 21, 2015 Rise Set
Actual Time
Civil Twilight
Nautical Twilight
Astronomical Twilight
Moon
Length of Visible Light
Length of Day
Tomorrow will be .
, % of the Moon is Illuminated

Today's Extremes

State Highs State Lows

Community

WunderPhotos

Upload Photos

1,815,551 photos uploaded!

WunderBlogs® & News

Nearby

Air Quality

  Air Quality AQ Index Pollutant
Not available.

Snow Depth

Station Depth Elevation

Earthquake Activity

City Distance Mag. Time & Date
Minimum magnitude displayed is 2.5.

Coastal Water Temperatures

Place Temperature

Stations

Nearby Weather Stations

Station Location Temp. Windchill Dew Point Humidity Wind Precip. Elev Updated Type